Terminal Aerodrome Forecast
Issued by NWS

Home | Current Version | Previous Version | Graphics & Text | Print | Product List | Glossary On
Versions: 1 2 3 4 5 6 7 8 9 10 11 12 13 14
000
FTUS43 KICT 230500
TAFRSL
TAF
KRSL 230520Z 2306/2406 16017G25KT P6SM SCT250
     FM231200 17018G28KT P6SM BKN120
     FM231600 19027G36KT P6SM SCT100
     FM240300 16020G30KT P6SM VCTS BKN050CB=

USA.gov is the U.S. government's official web portal to all federal, state and local government web resources and services.